createdAt,value
2023-05-07T00:00:35.499Z,99.90
2023-05-07T00:03:04.231Z,99.90
2023-05-07T00:05:33.110Z,99.90
2023-05-07T00:08:03.486Z,99.90
2023-05-07T00:10:32.128Z,99.90
2023-05-07T00:13:01.700Z,99.90
2023-05-07T00:15:30.618Z,99.90
2023-05-07T00:18:00.511Z,99.90
2023-05-07T00:20:29.377Z,99.90
2023-05-07T00:22:58.130Z,99.90
2023-05-07T00:25:28.419Z,99.90
2023-05-07T00:27:57.148Z,99.90
2023-05-07T00:30:25.934Z,99.90
2023-05-07T00:32:54.761Z,99.90
2023-05-07T00:35:23.820Z,99.90
2023-05-07T00:37:52.649Z,99.90
2023-05-07T00:40:21.700Z,99.90
2023-05-07T00:42:54.049Z,99.90
2023-05-07T00:45:23.103Z,99.90
2023-05-07T00:47:54.829Z,99.90
2023-05-07T00:50:24.558Z,99.90
2023-05-07T00:52:54.172Z,99.90
2023-05-07T00:55:24.703Z,99.90
2023-05-07T00:57:56.041Z,99.90
2023-05-07T01:00:26.314Z,99.90
2023-05-07T01:02:55.812Z,99.90
2023-05-07T01:05:27.151Z,99.90
2023-05-07T01:07:57.469Z,99.90
2023-05-07T01:10:26.883Z,99.90
2023-05-07T01:12:57.148Z,99.90
2023-05-07T01:15:26.037Z,99.90
2023-05-07T01:17:54.915Z,99.90
2023-05-07T01:20:30.879Z,99.90
2023-05-07T01:23:03.115Z,99.90
2023-05-07T01:25:32.268Z,99.90
2023-05-07T01:28:03.589Z,99.90
2023-05-07T01:30:38.356Z,99.90
2023-05-07T01:33:13.473Z,99.90
2023-05-07T01:35:46.287Z,99.90
2023-05-07T01:38:17.346Z,99.90
2023-05-07T01:40:46.639Z,99.90
2023-05-07T01:43:16.102Z,99.90
2023-05-07T01:45:47.123Z,99.90
2023-05-07T01:48:17.800Z,99.90
2023-05-07T01:50:47.556Z,99.90
2023-05-07T01:53:18.628Z,99.90
2023-05-07T01:55:48.023Z,99.90
2023-05-07T01:58:18.612Z,99.90
2023-05-07T02:00:47.757Z,99.90
2023-05-07T02:03:16.878Z,99.90
2023-05-07T02:05:57.630Z,99.90
2023-05-07T02:08:38.117Z,99.90
2023-05-07T02:11:07.416Z,99.90
2023-05-07T02:13:37.691Z,99.90
2023-05-07T02:16:07.856Z,99.90
2023-05-07T02:18:36.894Z,99.90
2023-05-07T02:21:06.366Z,99.90
2023-05-07T02:23:37.307Z,99.90
2023-05-07T02:26:06.817Z,99.90
2023-05-07T02:28:36.518Z,99.90
2023-05-07T02:31:07.294Z,99.90
2023-05-07T02:33:37.699Z,99.90
2023-05-07T02:36:10.632Z,99.90
2023-05-07T02:38:47.516Z,99.90
2023-05-07T02:41:16.206Z,99.90
2023-05-07T02:43:44.939Z,99.90
2023-05-07T02:46:14.333Z,99.90
2023-05-07T02:48:48.273Z,99.90
2023-05-07T02:51:17.098Z,99.90
2023-05-07T02:53:47.444Z,99.90
2023-05-07T02:56:16.106Z,99.90
2023-05-07T02:58:44.868Z,99.90
2023-05-07T03:01:15.131Z,99.90
2023-05-07T03:03:51.606Z,99.90
2023-05-07T03:06:20.592Z,99.90
2023-05-07T03:08:50.842Z,99.90
2023-05-07T03:11:19.716Z,99.90
2023-05-07T03:13:50.177Z,99.90
2023-05-07T03:16:21.176Z,99.90
2023-05-07T03:18:49.914Z,99.90
2023-05-07T03:21:18.816Z,99.90
2023-05-07T03:23:47.683Z,99.90
2023-05-07T03:26:17.849Z,99.90
2023-05-07T03:28:47.408Z,99.90
2023-05-07T03:31:18.834Z,99.90
2023-05-07T03:33:54.312Z,99.90
2023-05-07T03:36:23.575Z,99.90
2023-05-07T03:38:53.015Z,99.90
2023-05-07T03:41:26.844Z,99.90
2023-05-07T03:43:55.927Z,99.90
2023-05-07T03:46:27.288Z,99.90
2023-05-07T03:48:56.544Z,99.90
2023-05-07T03:51:25.281Z,99.90
2023-05-07T03:53:54.910Z,99.90
2023-05-07T03:56:27.858Z,99.90
2023-05-07T03:58:58.701Z,99.90
2023-05-07T04:01:27.842Z,99.90
2023-05-07T04:03:57.136Z,99.90
2023-05-07T04:06:27.051Z,99.90
2023-05-07T04:08:55.798Z,99.90
2023-05-07T04:11:26.242Z,99.90
2023-05-07T04:13:55.193Z,99.90
2023-05-07T04:16:25.921Z,99.90
2023-05-07T04:18:56.011Z,99.90
2023-05-07T04:21:24.959Z,99.90
2023-05-07T04:23:54.490Z,99.90
2023-05-07T04:26:24.409Z,99.90
2023-05-07T04:28:54.734Z,99.90
2023-05-07T04:31:23.556Z,99.90
2023-05-07T04:33:55.101Z,99.90
2023-05-07T04:36:24.131Z,99.90
2023-05-07T04:38:59.892Z,99.90
2023-05-07T04:41:29.521Z,99.90
2023-05-07T04:44:00.831Z,99.90
2023-05-07T04:46:32.776Z,99.90
2023-05-07T04:49:01.901Z,99.90
2023-05-07T04:51:30.801Z,99.90
2023-05-07T04:53:59.554Z,99.90
2023-05-07T04:56:31.411Z,99.90
2023-05-07T04:59:03.388Z,99.90
2023-05-07T05:01:33.290Z,99.90
2023-05-07T05:04:02.599Z,99.90
2023-05-07T05:06:31.774Z,99.90
2023-05-07T05:09:01.191Z,99.90
2023-05-07T05:11:32.069Z,99.90
2023-05-07T05:14:03.397Z,99.90
2023-05-07T05:16:32.131Z,99.90
2023-05-07T05:19:01.787Z,99.90
2023-05-07T05:21:31.321Z,99.90
2023-05-07T05:24:06.236Z,99.90
2023-05-07T05:26:35.009Z,99.90
2023-05-07T05:29:05.836Z,99.90
2023-05-07T05:31:35.115Z,99.90
2023-05-07T05:34:04.799Z,99.90
2023-05-07T05:36:34.380Z,99.90
2023-05-07T05:39:03.910Z,99.90
2023-05-07T05:41:32.906Z,99.90
2023-05-07T05:44:02.224Z,99.90
2023-05-07T05:46:34.071Z,99.90
2023-05-07T05:49:04.324Z,99.90
2023-05-07T05:51:33.817Z,99.90
2023-05-07T05:54:02.603Z,99.90
2023-05-07T05:56:31.699Z,99.90
2023-05-07T05:59:00.638Z,99.90
2023-05-07T06:01:29.604Z,99.90
2023-05-07T06:04:02.297Z,99.90
2023-05-07T06:06:32.465Z,99.90
2023-05-07T06:09:01.937Z,99.90
2023-05-07T06:11:38.395Z,99.90
2023-05-07T06:14:08.342Z,99.90
2023-05-07T06:16:39.203Z,99.90
2023-05-07T06:19:11.307Z,99.90
2023-05-07T06:21:42.488Z,99.90
2023-05-07T06:24:11.632Z,99.90
2023-05-07T06:26:41.648Z,99.90
2023-05-07T06:29:10.881Z,99.90
2023-05-07T06:31:42.245Z,99.90
2023-05-07T06:34:16.356Z,99.90
2023-05-07T06:36:45.357Z,99.90
2023-05-07T06:39:23.209Z,99.90
2023-05-07T06:41:53.652Z,99.90
2023-05-07T06:44:27.688Z,99.90
2023-05-07T06:47:16.080Z,99.90
2023-05-07T06:49:49.084Z,99.90
2023-05-07T06:52:21.083Z,99.90
2023-05-07T06:54:52.416Z,99.90
2023-05-07T06:57:23.502Z,99.90
2023-05-07T06:59:52.370Z,99.90
2023-05-07T07:02:22.304Z,99.90
2023-05-07T07:04:53.688Z,99.90
2023-05-07T07:07:22.535Z,99.90
2023-05-07T07:09:52.645Z,99.90
2023-05-07T07:12:22.201Z,99.90
2023-05-07T07:14:51.155Z,99.90
2023-05-07T07:17:19.873Z,99.90
2023-05-07T07:19:48.515Z,99.90
2023-05-07T07:22:19.008Z,99.90
2023-05-07T07:24:47.780Z,99.90
2023-05-07T07:27:19.053Z,99.90
2023-05-07T07:29:47.717Z,99.90
2023-05-07T07:32:16.964Z,99.90
2023-05-07T07:34:46.133Z,99.90
2023-05-07T07:37:15.519Z,99.90
2023-05-07T07:39:46.299Z,99.90
2023-05-07T07:42:15.325Z,99.90
2023-05-07T07:44:44.074Z,99.90
2023-05-07T07:47:15.447Z,99.90
2023-05-07T07:49:45.854Z,99.90
2023-05-07T07:52:15.176Z,99.90
2023-05-07T07:54:47.386Z,99.90
2023-05-07T07:57:16.192Z,99.90
2023-05-07T07:59:45.184Z,99.90
2023-05-07T08:02:15.535Z,99.90
2023-05-07T08:04:45.104Z,99.90
2023-05-07T08:07:14.402Z,99.90
2023-05-07T08:09:47.403Z,99.90
2023-05-07T08:12:17.065Z,99.90
2023-05-07T08:14:46.218Z,99.90
2023-05-07T08:17:17.109Z,99.90
2023-05-07T08:19:46.863Z,99.90
2023-05-07T08:22:16.888Z,99.90
2023-05-07T08:24:47.735Z,99.90
2023-05-07T08:27:16.878Z,99.90
2023-05-07T08:29:48.638Z,99.90
2023-05-07T08:32:19.104Z,99.90
2023-05-07T08:34:48.017Z,99.90
2023-05-07T08:37:17.076Z,99.90
2023-05-07T08:39:48.200Z,99.90
2023-05-07T08:42:25.721Z,99.90
2023-05-07T08:44:56.801Z,99.90
2023-05-07T08:47:33.032Z,99.90
2023-05-07T08:50:04.007Z,99.90
2023-05-07T08:52:32.790Z,99.90
2023-05-07T08:55:05.365Z,99.90
2023-05-07T08:57:34.669Z,99.90
2023-05-07T09:00:04.123Z,99.90
2023-05-07T09:02:33.710Z,99.90
2023-05-07T09:05:02.551Z,99.90
2023-05-07T09:07:32.602Z,99.90
2023-05-07T09:10:06.077Z,99.90
2023-05-07T09:12:37.488Z,99.90
2023-05-07T09:15:09.565Z,99.90
2023-05-07T09:17:38.673Z,99.90
2023-05-07T09:21:24.619Z,99.90
2023-05-07T09:23:57.436Z,99.90
2023-05-07T09:26:35.061Z,99.90
2023-05-07T09:29:05.266Z,99.90
2023-05-07T09:31:34.050Z,99.90
2023-05-07T09:34:03.721Z,99.90
2023-05-07T09:36:34.980Z,99.90
2023-05-07T09:39:04.532Z,99.90
2023-05-07T09:41:35.367Z,99.90
2023-05-07T09:44:16.372Z,99.90
2023-05-07T09:46:55.905Z,99.90
2023-05-07T09:49:32.501Z,99.90
2023-05-07T09:52:10.230Z,99.90
2023-05-07T09:54:44.186Z,99.90
2023-05-07T09:57:15.929Z,99.90
2023-05-07T09:59:49.435Z,99.90
2023-05-07T10:02:22.379Z,99.90
2023-05-07T10:04:56.964Z,99.90
2023-05-07T10:07:32.217Z,99.90
2023-05-07T10:10:08.557Z,99.90
2023-05-07T10:12:43.605Z,99.90
2023-05-07T10:15:22.009Z,99.90
2023-05-07T10:17:57.014Z,99.90
2023-05-07T10:20:28.315Z,99.90
2023-05-07T10:22:59.468Z,99.90
2023-05-07T10:25:35.719Z,99.90
2023-05-07T10:28:14.522Z,99.90
2023-05-07T10:31:02.369Z,99.90
2023-05-07T10:33:38.839Z,99.90
2023-05-07T10:36:09.164Z,99.90
2023-05-07T10:38:39.566Z,99.90
2023-05-07T10:41:08.498Z,99.90
2023-05-07T10:43:44.247Z,99.90
2023-05-07T10:46:21.498Z,99.80
2023-05-07T10:49:09.680Z,99.00
2023-05-07T10:51:46.875Z,99.20
2023-05-07T10:54:26.029Z,98.70
2023-05-07T10:57:35.215Z,98.40
2023-05-07T11:00:45.767Z,97.20
2023-05-07T11:03:23.447Z,97.10
2023-05-07T11:06:14.282Z,97.20
2023-05-07T11:09:05.477Z,97.70
2023-05-07T11:11:53.666Z,97.90
2023-05-07T11:14:48.416Z,97.90
2023-05-07T11:17:35.729Z,97.60
2023-05-07T11:20:13.587Z,98.10
2023-05-07T11:22:50.091Z,98.20
2023-05-07T11:25:29.488Z,97.20
2023-05-07T11:28:11.609Z,97.40
2023-05-07T11:30:46.430Z,96.30
2023-05-07T11:33:21.807Z,95.90
2023-05-07T11:35:53.132Z,96.70
2023-05-07T11:38:25.164Z,95.30
2023-05-07T11:40:54.588Z,94.70
2023-05-07T11:43:23.227Z,95.10
2023-05-07T11:45:52.303Z,96.00
2023-05-07T11:48:24.567Z,96.30
2023-05-07T11:50:54.226Z,95.70
2023-05-07T11:53:23.177Z,94.80
2023-05-07T11:55:55.115Z,93.90
2023-05-07T11:58:25.062Z,94.00
2023-05-07T12:00:54.711Z,94.50
2023-05-07T12:03:25.170Z,95.00
2023-05-07T12:05:53.868Z,95.10
2023-05-07T12:08:23.701Z,95.00
2023-05-07T12:10:53.540Z,94.70
2023-05-07T12:13:23.981Z,94.20
2023-05-07T12:15:53.602Z,94.00
2023-05-07T12:18:23.080Z,94.10
2023-05-07T12:20:53.688Z,93.50
2023-05-07T12:23:24.488Z,93.50
2023-05-07T12:25:53.558Z,93.50
2023-05-07T12:28:22.472Z,93.50
2023-05-07T12:30:52.672Z,94.40
2023-05-07T12:33:25.771Z,94.00
2023-05-07T12:35:57.526Z,93.80
2023-05-07T12:38:26.257Z,93.80
2023-05-07T12:40:57.200Z,94.10
2023-05-07T12:43:28.393Z,94.20
2023-05-07T12:45:58.774Z,94.00
2023-05-07T12:48:28.286Z,93.70
2023-05-07T12:50:59.556Z,93.50
2023-05-07T12:53:30.445Z,93.30
2023-05-07T12:56:00.761Z,93.00
2023-05-07T12:58:31.208Z,93.20
2023-05-07T13:01:03.705Z,92.20
2023-05-07T13:03:34.268Z,91.70
2023-05-07T13:06:06.038Z,92.00
2023-05-07T13:08:36.194Z,91.60
2023-05-07T13:11:06.154Z,92.20
2023-05-07T13:13:36.642Z,92.50
2023-05-07T13:16:06.729Z,92.90
2023-05-07T13:18:37.161Z,92.40
2023-05-07T13:21:11.217Z,92.40
2023-05-07T13:23:42.930Z,92.70
2023-05-07T13:26:26.173Z,93.30
2023-05-07T13:28:57.286Z,92.50
2023-05-07T13:31:26.415Z,91.50
2023-05-07T13:33:57.313Z,91.60
2023-05-07T13:36:36.452Z,93.70
2023-05-07T13:39:05.293Z,92.50
2023-05-07T13:41:34.596Z,90.60
2023-05-07T13:45:18.439Z,90.40
2023-05-07T13:47:47.624Z,89.20
2023-05-07T13:50:16.358Z,89.10
2023-05-07T13:52:51.724Z,87.80
2023-05-07T13:55:20.748Z,88.30
2023-05-07T13:57:49.680Z,88.90
2023-05-07T14:00:19.058Z,88.90
2023-05-07T14:02:47.852Z,87.10
2023-05-07T14:05:16.562Z,86.80
2023-05-07T14:07:46.792Z,85.50
2023-05-07T14:10:15.708Z,85.20
2023-05-07T14:12:44.671Z,84.10
2023-05-07T14:15:16.113Z,84.40
2023-05-07T14:17:44.915Z,85.20
2023-05-07T14:20:14.640Z,84.90
2023-05-07T14:22:43.480Z,82.50
2023-05-07T14:25:14.370Z,82.50
2023-05-07T14:27:44.974Z,82.00
2023-05-07T14:30:16.236Z,81.80
2023-05-07T14:32:44.977Z,80.30
2023-05-07T14:35:14.095Z,81.60
2023-05-07T14:37:45.553Z,79.00
2023-05-07T14:40:15.906Z,78.70
2023-05-07T14:42:44.844Z,77.90
2023-05-07T14:45:14.085Z,77.40
2023-05-07T14:47:42.843Z,77.30
2023-05-07T14:50:11.895Z,76.10
2023-05-07T14:52:40.632Z,74.70
2023-05-07T14:55:36.115Z,74.10
2023-05-07T14:58:04.731Z,74.00
2023-05-07T15:00:34.591Z,75.00
2023-05-07T15:03:08.898Z,75.00
2023-05-07T15:05:38.389Z,75.30
2023-05-07T15:08:07.437Z,75.30
2023-05-07T15:10:42.320Z,74.60
2023-05-07T15:13:14.738Z,75.50
2023-05-07T15:15:45.814Z,73.40
2023-05-07T15:18:14.358Z,72.20
2023-05-07T15:20:43.354Z,71.80
2023-05-07T15:23:13.282Z,71.50
2023-05-07T15:25:44.551Z,71.90
2023-05-07T15:28:13.313Z,72.60
2023-05-07T15:30:47.057Z,72.80
2023-05-07T15:33:17.820Z,73.30
2023-05-07T15:35:46.825Z,72.90
2023-05-07T15:38:16.905Z,72.20
2023-05-07T15:40:47.081Z,72.70
2023-05-07T15:43:15.833Z,73.70
2023-05-07T15:45:45.842Z,74.90
2023-05-07T15:48:14.572Z,74.70
2023-05-07T15:50:43.382Z,75.90
2023-05-07T15:53:13.915Z,75.60
2023-05-07T15:55:44.488Z,75.10
2023-05-07T15:58:14.895Z,74.60
2023-05-07T16:00:43.494Z,75.00
2023-05-07T16:03:12.221Z,76.20
2023-05-07T16:05:41.083Z,75.70
2023-05-07T16:08:09.735Z,76.20
2023-05-07T16:10:38.406Z,77.50
2023-05-07T16:13:07.462Z,78.50
2023-05-07T16:15:37.593Z,79.40
2023-05-07T16:18:06.773Z,80.00
2023-05-07T16:20:35.851Z,80.40
2023-05-07T16:23:04.468Z,80.10
2023-05-07T16:25:33.151Z,79.80
2023-05-07T16:28:01.849Z,79.20
2023-05-07T16:30:30.433Z,79.70
2023-05-07T16:33:00.620Z,80.60
2023-05-07T16:35:29.438Z,80.90
2023-05-07T16:37:58.225Z,81.00
2023-05-07T16:40:27.215Z,81.20
2023-05-07T16:42:56.444Z,81.70
2023-05-07T16:45:25.154Z,82.40
2023-05-07T16:47:53.838Z,82.50
2023-05-07T16:50:23.846Z,83.30
2023-05-07T16:52:52.679Z,83.90
2023-05-07T16:55:22.047Z,84.50
2023-05-07T16:57:50.643Z,84.20
2023-05-07T17:00:19.713Z,85.20
2023-05-07T17:02:48.368Z,85.80
2023-05-07T17:05:17.110Z,86.10
2023-05-07T17:07:47.238Z,87.00
2023-05-07T17:10:15.970Z,87.30
2023-05-07T17:12:44.604Z,87.60
2023-05-07T17:15:14.152Z,88.10
2023-05-07T17:17:43.141Z,88.70
2023-05-07T17:20:42.801Z,89.00
2023-05-07T17:23:15.636Z,88.90
2023-05-07T17:25:45.768Z,89.20
2023-05-07T17:28:18.417Z,89.60
2023-05-07T17:30:48.236Z,89.60
2023-05-07T17:33:21.352Z,89.80
2023-05-07T17:35:51.160Z,89.60
2023-05-07T17:38:21.197Z,89.30
2023-05-07T17:40:51.798Z,89.60
2023-05-07T17:43:20.339Z,89.50
2023-05-07T17:45:49.151Z,90.00
2023-05-07T17:48:18.436Z,90.00
2023-05-07T17:50:47.182Z,90.10
2023-05-07T17:53:24.867Z,90.30
2023-05-07T17:55:54.389Z,90.40
2023-05-07T17:58:25.676Z,90.40
2023-05-07T18:00:55.607Z,90.20
2023-05-07T18:03:25.008Z,90.50
2023-05-07T18:05:53.950Z,91.20
2023-05-07T18:08:24.265Z,90.90
2023-05-07T18:10:53.196Z,90.80
2023-05-07T18:13:22.073Z,91.00
2023-05-07T18:15:50.882Z,91.10
2023-05-07T18:18:19.992Z,91.50
2023-05-07T18:20:51.104Z,91.60
2023-05-07T18:23:19.862Z,91.70
2023-05-07T18:25:49.927Z,92.00
2023-05-07T18:28:18.531Z,92.10
2023-05-07T18:30:47.119Z,92.10
2023-05-07T18:33:15.743Z,92.00
2023-05-07T18:35:44.348Z,91.40
2023-05-07T18:38:12.926Z,91.40
2023-05-07T18:40:44.248Z,91.40
2023-05-07T18:43:14.441Z,91.50
2023-05-07T18:45:43.168Z,91.50
2023-05-07T18:48:11.991Z,92.20
2023-05-07T18:50:43.940Z,92.20
2023-05-07T18:53:12.609Z,92.20
2023-05-07T18:55:41.435Z,92.10
2023-05-07T18:58:10.808Z,92.40
2023-05-07T19:00:40.805Z,93.10
2023-05-07T19:03:09.459Z,92.30
2023-05-07T19:05:37.888Z,93.20
2023-05-07T19:08:06.766Z,92.50
2023-05-07T19:10:35.479Z,92.50
2023-05-07T19:13:04.218Z,92.70
2023-05-07T19:15:32.676Z,93.00
2023-05-07T19:18:02.838Z,92.90
2023-05-07T19:20:31.845Z,92.70
2023-05-07T19:23:00.667Z,92.60
2023-05-07T19:25:29.392Z,92.80
2023-05-07T19:27:58.506Z,93.00
2023-05-07T19:30:27.616Z,92.50
2023-05-07T19:32:56.438Z,92.50
2023-05-07T19:35:26.719Z,92.40
2023-05-07T19:37:55.574Z,92.50
2023-05-07T19:40:24.205Z,92.70
2023-05-07T19:42:52.880Z,92.40
2023-05-07T19:45:21.628Z,92.80
2023-05-07T19:47:51.215Z,92.70
2023-05-07T19:50:20.158Z,92.80
2023-05-07T19:52:53.053Z,93.10
2023-05-07T19:55:22.256Z,93.30
2023-05-07T19:57:51.082Z,93.50
2023-05-07T20:00:21.361Z,93.80
2023-05-07T20:02:51.405Z,93.80
2023-05-07T20:05:21.412Z,94.00
2023-05-07T20:07:50.112Z,94.10
2023-05-07T20:10:20.742Z,94.40
2023-05-07T20:12:49.717Z,94.80
2023-05-07T20:15:19.747Z,94.90
2023-05-07T20:17:48.468Z,95.10
2023-05-07T20:20:17.341Z,95.60
2023-05-07T20:22:45.960Z,95.70
2023-05-07T20:25:15.164Z,95.90
2023-05-07T20:27:45.393Z,96.40
2023-05-07T20:30:15.240Z,96.40
2023-05-07T20:32:44.140Z,96.40
2023-05-07T20:35:12.910Z,96.50
2023-05-07T20:37:42.190Z,96.80
2023-05-07T20:40:12.383Z,96.80
2023-05-07T20:42:42.683Z,97.10
2023-05-07T20:45:13.732Z,97.20
2023-05-07T20:47:42.747Z,97.60
2023-05-07T20:50:12.191Z,97.80
2023-05-07T20:52:41.069Z,98.10
2023-05-07T20:55:10.722Z,98.40
2023-05-07T20:57:39.369Z,98.50
2023-05-07T21:00:09.525Z,98.80
2023-05-07T21:02:39.780Z,99.10
2023-05-07T21:05:09.257Z,99.10
2023-05-07T21:07:37.983Z,99.40
2023-05-07T21:10:07.624Z,99.60
2023-05-07T21:12:36.457Z,99.90
2023-05-07T21:15:05.632Z,99.90
2023-05-07T21:17:35.417Z,99.90
2023-05-07T21:20:06.228Z,99.90
2023-05-07T21:22:35.158Z,99.90
2023-05-07T21:25:03.986Z,99.90
2023-05-07T21:27:32.634Z,99.90
2023-05-07T21:30:04.998Z,99.90
2023-05-07T21:32:33.947Z,99.90
2023-05-07T21:35:02.681Z,99.90
2023-05-07T21:37:32.889Z,99.90
2023-05-07T21:40:01.796Z,99.90
2023-05-07T21:42:30.962Z,99.90
2023-05-07T21:44:59.746Z,99.90
2023-05-07T21:47:28.548Z,99.90
2023-05-07T21:49:57.707Z,99.90
2023-05-07T21:52:26.772Z,99.90
2023-05-07T21:54:56.933Z,99.90
2023-05-07T21:57:25.675Z,99.90
2023-05-07T21:59:54.340Z,99.90
2023-05-07T22:02:23.119Z,99.90
2023-05-07T22:04:51.891Z,99.90
2023-05-07T22:07:20.849Z,99.90
2023-05-07T22:09:49.628Z,99.90
2023-05-07T22:12:19.950Z,99.90
2023-05-07T22:14:48.895Z,99.90
2023-05-07T22:17:17.534Z,99.90
2023-05-07T22:19:46.298Z,99.90
2023-05-07T22:22:15.052Z,99.90
2023-05-07T22:24:43.959Z,99.90
2023-05-07T22:27:12.770Z,99.90
2023-05-07T22:29:42.898Z,99.90
2023-05-07T22:32:12.899Z,99.90
2023-05-07T22:34:41.688Z,99.90
2023-05-07T22:37:10.338Z,99.90
2023-05-07T22:39:39.063Z,99.90
2023-05-07T22:42:07.784Z,99.90
2023-05-07T22:44:36.589Z,99.90
2023-05-07T22:47:06.886Z,99.90
2023-05-07T22:49:36.198Z,99.90
2023-05-07T22:52:05.303Z,99.90
2023-05-07T22:54:34.010Z,99.90
2023-05-07T22:57:03.494Z,99.90
2023-05-07T22:59:32.100Z,99.90
2023-05-07T23:02:01.019Z,99.90
2023-05-07T23:04:31.181Z,99.90
2023-05-07T23:06:59.930Z,99.90
2023-05-07T23:09:28.626Z,99.90
2023-05-07T23:11:57.281Z,99.90
2023-05-07T23:14:26.074Z,99.90
2023-05-07T23:16:54.850Z,99.90
2023-05-07T23:19:23.928Z,99.90
2023-05-07T23:21:54.411Z,99.90
2023-05-07T23:24:23.084Z,99.90
2023-05-07T23:26:51.963Z,99.90
2023-05-07T23:29:20.556Z,99.90
2023-05-07T23:31:49.184Z,99.90
2023-05-07T23:34:24.100Z,99.90
2023-05-07T23:36:55.108Z,99.90
2023-05-07T23:39:23.866Z,99.90
2023-05-07T23:41:52.660Z,99.90
2023-05-07T23:44:21.416Z,99.90
2023-05-07T23:46:50.527Z,99.90
2023-05-07T23:49:19.549Z,99.90
2023-05-07T23:51:48.314Z,99.90
2023-05-07T23:54:18.514Z,99.90
2023-05-07T23:56:47.392Z,99.90
2023-05-07T23:59:16.082Z,99.90
